createdAt,value
2022-09-06T00:00:47.976Z,99.99
2022-09-06T00:01:48.074Z,99.99
2022-09-06T00:02:48.277Z,99.99
2022-09-06T00:03:48.139Z,99.99
2022-09-06T00:04:47.995Z,99.99
2022-09-06T00:05:48.057Z,99.99
2022-09-06T00:06:47.925Z,99.99
2022-09-06T00:07:47.889Z,99.99
2022-09-06T00:08:47.937Z,99.99
2022-09-06T00:09:48.389Z,99.99
2022-09-06T00:10:47.888Z,99.99
2022-09-06T00:11:47.839Z,99.99
2022-09-06T00:12:47.907Z,99.99
2022-09-06T00:13:48.071Z,99.99
2022-09-06T00:14:47.779Z,99.99
2022-09-06T00:15:47.874Z,99.99
2022-09-06T00:16:47.910Z,99.99
2022-09-06T00:17:47.751Z,99.99
2022-09-06T00:18:47.915Z,99.99
2022-09-06T00:19:47.754Z,99.99
2022-09-06T00:20:47.894Z,99.99
2022-09-06T00:21:47.829Z,99.99
2022-09-06T00:22:47.674Z,99.99
2022-09-06T00:23:47.735Z,99.99
2022-09-06T00:24:47.916Z,99.99
2022-09-06T00:25:47.734Z,99.99
2022-09-06T00:26:47.709Z,99.99
2022-09-06T00:27:47.734Z,99.99
2022-09-06T00:28:47.585Z,99.99
2022-09-06T00:29:47.575Z,99.99
2022-09-06T00:30:47.602Z,99.99
2022-09-06T00:31:47.732Z,99.99
2022-09-06T00:32:47.649Z,99.99
2022-09-06T00:33:47.541Z,99.99
2022-09-06T00:34:47.572Z,99.99
2022-09-06T00:35:47.729Z,99.99
2022-09-06T00:36:47.599Z,99.99
2022-09-06T00:37:47.470Z,99.99
2022-09-06T00:38:47.650Z,99.99
2022-09-06T00:39:47.507Z,99.99
2022-09-06T00:40:47.439Z,99.99
2022-09-06T00:41:47.435Z,99.99
2022-09-06T00:42:47.587Z,99.99
2022-09-06T00:43:47.763Z,99.99
2022-09-06T00:44:47.614Z,99.99
2022-09-06T00:45:47.437Z,99.99
2022-09-06T00:46:47.345Z,99.99
2022-09-06T00:47:47.414Z,99.99
2022-09-06T00:48:47.914Z,99.99
2022-09-06T00:49:47.415Z,99.99
2022-09-06T00:50:47.594Z,99.99
2022-09-06T00:51:47.435Z,99.99
2022-09-06T00:52:47.276Z,99.99
2022-09-06T00:53:47.500Z,99.99
2022-09-06T00:54:47.279Z,99.99
2022-09-06T00:55:47.412Z,99.99
2022-09-06T00:56:47.259Z,99.99
2022-09-06T00:57:47.199Z,99.99
2022-09-06T00:58:47.249Z,99.99
2022-09-06T00:59:47.229Z,99.99
2022-09-06T01:00:47.260Z,99.99
2022-09-06T01:01:47.216Z,99.99
2022-09-06T01:02:47.410Z,99.99
2022-09-06T01:03:47.139Z,99.99
2022-09-06T01:04:47.100Z,99.99
2022-09-06T01:05:49.663Z,99.99
2022-09-06T01:06:47.291Z,99.99
2022-09-06T01:07:47.093Z,99.99
2022-09-06T01:08:47.069Z,99.99
2022-09-06T01:09:47.094Z,99.99
2022-09-06T01:10:47.348Z,99.99
2022-09-06T01:11:47.084Z,99.99
2022-09-06T01:12:47.035Z,99.99
2022-09-06T01:13:47.095Z,99.99
2022-09-06T01:14:46.965Z,99.99
2022-09-06T01:15:47.218Z,99.99
2022-09-06T01:16:46.938Z,99.99
2022-09-06T01:17:47.099Z,99.99
2022-09-06T01:18:46.940Z,99.99
2022-09-06T01:19:46.901Z,99.99
2022-09-06T01:20:46.990Z,99.99
2022-09-06T01:21:46.869Z,99.99
2022-09-06T01:22:46.928Z,99.99
2022-09-06T01:23:46.839Z,99.99
2022-09-06T01:24:46.949Z,99.99
2022-09-06T01:25:46.890Z,99.99
2022-09-06T01:26:46.929Z,99.99
2022-09-06T01:27:46.780Z,99.99
2022-09-06T01:28:46.762Z,99.99
2022-09-06T01:29:46.775Z,99.99
2022-09-06T01:30:46.847Z,99.99
2022-09-06T01:31:46.854Z,99.99
2022-09-06T01:32:46.724Z,99.99
2022-09-06T01:33:46.794Z,99.99
2022-09-06T01:34:46.695Z,99.99
2022-09-06T01:35:46.788Z,99.99
2022-09-06T01:37:08.416Z,99.99
2022-09-06T01:37:46.775Z,99.99
2022-09-06T01:38:46.948Z,99.99
2022-09-06T01:39:46.664Z,99.99
2022-09-06T01:40:46.604Z,99.99
2022-09-06T01:41:46.660Z,99.99
2022-09-06T01:42:46.629Z,99.99
2022-09-06T01:43:46.570Z,99.99
2022-09-06T01:44:46.609Z,99.99
2022-09-06T01:45:46.573Z,99.99
2022-09-06T01:46:46.679Z,99.99
2022-09-06T01:47:46.509Z,99.99
2022-09-06T01:48:46.619Z,99.99
2022-09-06T01:49:46.469Z,99.99
2022-09-06T01:50:46.470Z,99.99
2022-09-06T01:51:46.539Z,99.99
2022-09-06T01:52:46.479Z,99.99
2022-09-06T01:53:46.483Z,99.99
2022-09-06T01:54:46.613Z,99.99
2022-09-06T01:55:46.454Z,99.99
2022-09-06T01:56:46.454Z,99.99
2022-09-06T01:57:46.514Z,99.99
2022-09-06T01:58:46.374Z,99.99
2022-09-06T01:59:46.453Z,99.99
2022-09-06T02:00:46.624Z,99.99
2022-09-06T02:01:46.596Z,99.99
2022-09-06T02:02:46.433Z,99.99
2022-09-06T02:03:46.444Z,99.99
2022-09-06T02:04:46.320Z,99.99
2022-09-06T02:05:46.279Z,99.99
2022-09-06T02:06:46.287Z,99.99
2022-09-06T02:07:46.460Z,99.99
2022-09-06T02:08:46.379Z,99.99
2022-09-06T02:09:46.449Z,99.99
2022-09-06T02:10:46.299Z,99.99
2022-09-06T02:11:46.190Z,99.99
2022-09-06T02:12:46.290Z,99.99
2022-09-06T02:13:46.170Z,99.99
2022-09-06T02:14:46.359Z,99.99
2022-09-06T02:15:46.130Z,99.99
2022-09-06T02:16:46.369Z,99.99
2022-09-06T02:17:46.144Z,99.99
2022-09-06T02:18:46.328Z,99.99
2022-09-06T02:19:46.134Z,99.99
2022-09-06T02:20:46.376Z,99.99
2022-09-06T02:21:46.144Z,99.99
2022-09-06T02:22:46.053Z,99.99
2022-09-06T02:23:46.125Z,99.99
2022-09-06T02:24:46.005Z,99.99
2022-09-06T02:25:46.124Z,99.99
2022-09-06T02:26:46.036Z,99.99
2022-09-06T02:27:45.963Z,99.99
2022-09-06T02:28:45.979Z,99.99
2022-09-06T02:29:45.950Z,99.99
2022-09-06T02:30:46.031Z,99.99
2022-09-06T02:31:45.973Z,99.99
2022-09-06T02:32:46.041Z,99.99
2022-09-06T02:33:46.149Z,99.99
2022-09-06T02:34:45.869Z,99.99
2022-09-06T02:35:45.860Z,99.99
2022-09-06T02:36:45.969Z,99.99
2022-09-06T02:37:45.889Z,99.99
2022-09-06T02:38:45.799Z,99.99
2022-09-06T02:39:45.934Z,99.99
2022-09-06T02:40:45.976Z,99.99
2022-09-06T02:41:45.815Z,99.99
2022-09-06T02:42:46.044Z,99.99
2022-09-06T02:43:45.828Z,99.99
2022-09-06T02:44:45.984Z,99.99
2022-09-06T02:45:45.900Z,99.99
2022-09-06T02:46:45.731Z,99.99
2022-09-06T02:47:45.814Z,99.99
2022-09-06T02:48:45.734Z,99.99
2022-09-06T02:49:45.668Z,99.99
2022-09-06T02:50:45.656Z,99.99
2022-09-06T02:51:45.634Z,99.99
2022-09-06T02:52:45.648Z,99.99
2022-09-06T02:53:45.812Z,99.99
2022-09-06T02:54:45.730Z,99.99
2022-09-06T02:55:45.832Z,99.99
2022-09-06T02:56:50.217Z,99.99
2022-09-06T02:57:45.811Z,99.99
2022-09-06T02:58:45.658Z,99.99
2022-09-06T02:59:45.869Z,99.99
2022-09-06T03:00:45.650Z,99.99
2022-09-06T03:01:45.621Z,99.99
2022-09-06T03:02:45.739Z,99.99
2022-09-06T03:03:45.528Z,99.99
2022-09-06T03:04:45.664Z,99.99
2022-09-06T03:05:45.609Z,99.99
2022-09-06T03:06:45.435Z,99.99
2022-09-06T03:07:45.494Z,99.99
2022-09-06T03:08:45.654Z,99.99
2022-09-06T03:09:45.497Z,99.99
2022-09-06T03:10:45.385Z,99.99
2022-09-06T03:11:45.588Z,99.99
2022-09-06T03:12:45.373Z,99.99
2022-09-06T03:13:45.323Z,99.99
2022-09-06T03:14:45.335Z,99.99
2022-09-06T03:15:45.348Z,99.99
2022-09-06T03:16:45.451Z,99.99
2022-09-06T03:17:45.489Z,99.99
2022-09-06T03:18:45.329Z,99.99
2022-09-06T03:19:45.490Z,99.99
2022-09-06T03:20:45.329Z,99.99
2022-09-06T03:21:45.498Z,99.99
2022-09-06T03:22:45.399Z,99.99
2022-09-06T03:23:45.190Z,99.99
2022-09-06T03:24:45.319Z,99.99
2022-09-06T03:25:45.169Z,99.99
2022-09-06T03:26:45.368Z,99.99
2022-09-06T03:27:45.255Z,99.99
2022-09-06T03:28:45.134Z,99.99
2022-09-06T03:29:45.185Z,99.99
2022-09-06T03:30:45.429Z,99.99
2022-09-06T03:31:45.175Z,99.99
2022-09-06T03:32:45.338Z,99.99
2022-09-06T03:33:45.244Z,99.99
2022-09-06T03:34:45.045Z,99.99
2022-09-06T03:35:45.166Z,99.99
2022-09-06T03:36:45.048Z,99.99
2022-09-06T03:37:44.995Z,99.99
2022-09-06T03:38:45.110Z,99.99
2022-09-06T03:39:45.202Z,99.99
2022-09-06T03:40:45.009Z,99.99
2022-09-06T03:41:44.959Z,99.99
2022-09-06T03:42:45.020Z,99.99
2022-09-06T03:43:44.989Z,99.99
2022-09-06T03:44:45.010Z,99.99
2022-09-06T03:45:44.934Z,99.99
2022-09-06T03:46:45.010Z,99.99
2022-09-06T03:47:44.869Z,99.99
2022-09-06T03:48:45.102Z,99.99
2022-09-06T03:49:44.860Z,99.99
2022-09-06T03:50:45.035Z,99.99
2022-09-06T03:51:44.888Z,99.99
2022-09-06T03:52:44.828Z,99.99
2022-09-06T03:53:44.888Z,99.99
2022-09-06T03:54:44.834Z,99.99
2022-09-06T03:55:44.874Z,99.99
2022-09-06T03:56:44.744Z,99.99
2022-09-06T03:57:44.868Z,99.99
2022-09-06T03:58:44.769Z,99.99
2022-09-06T03:59:44.754Z,99.99
2022-09-06T04:00:44.721Z,99.99
2022-09-06T04:01:44.949Z,99.99
2022-09-06T04:02:44.778Z,99.99
2022-09-06T04:03:44.659Z,99.99
2022-09-06T04:04:45.039Z,99.99
2022-09-06T04:05:44.640Z,99.99
2022-09-06T04:06:44.690Z,99.99
2022-09-06T04:07:44.869Z,99.99
2022-09-06T04:08:44.709Z,99.99
2022-09-06T04:09:44.920Z,99.99
2022-09-06T04:10:44.691Z,99.99
2022-09-06T04:11:45.197Z,99.99
2022-09-06T04:12:44.714Z,99.99
2022-09-06T04:13:44.555Z,99.99
2022-09-06T04:14:44.575Z,99.99
2022-09-06T04:15:44.534Z,99.99
2022-09-06T04:16:44.553Z,99.99
2022-09-06T04:17:44.545Z,99.99
2022-09-06T04:18:44.445Z,99.99
2022-09-06T04:19:44.568Z,99.99
2022-09-06T04:20:44.510Z,99.99
2022-09-06T04:21:44.537Z,99.99
2022-09-06T04:22:44.394Z,99.99
2022-09-06T04:23:44.374Z,99.99
2022-09-06T04:24:44.401Z,99.99
2022-09-06T04:25:44.348Z,99.99
2022-09-06T04:26:44.489Z,99.99
2022-09-06T04:27:44.329Z,99.99
2022-09-06T04:28:44.389Z,99.99
2022-09-06T04:29:44.290Z,99.99
2022-09-06T04:30:44.390Z,99.99
2022-09-06T04:31:44.596Z,99.99
2022-09-06T04:32:44.440Z,99.99
2022-09-06T04:33:44.549Z,99.99
2022-09-06T04:34:44.229Z,99.99
2022-09-06T04:35:44.210Z,99.99
2022-09-06T04:36:48.137Z,99.99
2022-09-06T04:37:44.284Z,99.99
2022-09-06T04:38:44.177Z,99.99
2022-09-06T04:39:44.251Z,99.99
2022-09-06T04:40:44.403Z,99.99
2022-09-06T04:41:44.215Z,99.99
2022-09-06T04:42:44.186Z,99.99
2022-09-06T04:43:44.215Z,99.99
2022-09-06T04:44:44.097Z,99.99
2022-09-06T04:45:44.131Z,99.99
2022-09-06T04:46:44.076Z,99.99
2022-09-06T04:47:44.264Z,99.99
2022-09-06T04:48:44.059Z,99.99
2022-09-06T04:49:44.220Z,99.99
2022-09-06T04:50:44.049Z,99.99
2022-09-06T04:51:44.212Z,99.99
2022-09-06T04:52:44.129Z,99.99
2022-09-06T04:53:43.979Z,99.99
2022-09-06T04:54:44.059Z,99.99
2022-09-06T04:55:43.948Z,99.99
2022-09-06T04:56:44.050Z,99.99
2022-09-06T04:57:47.466Z,99.99
2022-09-06T04:58:43.949Z,99.99
2022-09-06T04:59:43.890Z,99.99
2022-09-06T05:00:44.071Z,99.99
2022-09-06T05:01:43.905Z,99.99
2022-09-06T05:02:43.906Z,99.99
2022-09-06T05:03:43.987Z,99.99
2022-09-06T05:04:43.848Z,99.99
2022-09-06T05:05:43.916Z,99.99
2022-09-06T05:06:43.795Z,99.99
2022-09-06T05:07:43.929Z,99.99
2022-09-06T05:08:44.075Z,99.99
2022-09-06T05:09:43.894Z,99.99
2022-09-06T05:10:43.754Z,99.99
2022-09-06T05:11:43.910Z,99.99
2022-09-06T05:12:44.492Z,99.99
2022-09-06T05:13:44.012Z,99.99
2022-09-06T05:14:43.731Z,99.99
2022-09-06T05:15:43.889Z,99.99
2022-09-06T05:16:43.777Z,99.99
2022-09-06T05:17:43.650Z,99.99
2022-09-06T05:18:43.812Z,99.99
2022-09-06T05:19:43.893Z,99.99
2022-09-06T05:20:43.741Z,99.99
2022-09-06T05:21:43.589Z,99.99
2022-09-06T05:22:43.586Z,99.99
2022-09-06T05:23:43.668Z,99.99
2022-09-06T05:24:43.555Z,99.99
2022-09-06T05:25:43.574Z,99.99
2022-09-06T05:26:43.766Z,99.99
2022-09-06T05:27:43.596Z,99.99
2022-09-06T05:28:43.737Z,99.99
2022-09-06T05:29:43.634Z,99.99
2022-09-06T05:30:43.754Z,99.99
2022-09-06T05:31:43.651Z,99.99
2022-09-06T05:32:43.444Z,99.99
2022-09-06T05:33:43.565Z,99.99
2022-09-06T05:34:43.432Z,99.99
2022-09-06T05:35:43.480Z,99.99
2022-09-06T05:36:43.430Z,99.99
2022-09-06T05:37:43.579Z,99.99
2022-09-06T05:38:43.410Z,99.99
2022-09-06T05:39:43.457Z,99.99
2022-09-06T05:40:43.423Z,99.99
2022-09-06T05:41:43.640Z,99.99
2022-09-06T05:42:43.410Z,99.99
2022-09-06T05:43:43.291Z,99.99
2022-09-06T05:44:43.410Z,99.99
2022-09-06T05:45:43.628Z,99.99
2022-09-06T05:46:43.370Z,99.99
2022-09-06T05:47:43.595Z,99.99
2022-09-06T05:48:43.425Z,99.99
2022-09-06T05:49:43.244Z,99.99
2022-09-06T05:50:43.414Z,99.99
2022-09-06T05:51:43.324Z,99.99
2022-09-06T05:52:43.414Z,99.99
2022-09-06T05:53:43.254Z,99.99
2022-09-06T05:54:43.415Z,99.99
2022-09-06T05:55:43.295Z,99.99
2022-09-06T05:56:43.115Z,99.99
2022-09-06T05:57:43.208Z,99.99
2022-09-06T05:58:43.099Z,99.99
2022-09-06T05:59:43.270Z,99.99
2022-09-06T06:00:43.112Z,99.99
2022-09-06T06:01:43.303Z,99.99
2022-09-06T06:02:43.227Z,99.99
2022-09-06T06:03:43.262Z,99.99
2022-09-06T06:04:43.089Z,99.99
2022-09-06T06:05:43.000Z,99.99
2022-09-06T06:06:43.000Z,99.99
2022-09-06T06:07:43.019Z,99.99
2022-09-06T06:08:43.116Z,99.99
2022-09-06T06:09:42.969Z,99.99
2022-09-06T06:10:42.934Z,99.99
2022-09-06T06:11:42.935Z,99.99
2022-09-06T06:12:42.965Z,99.99
2022-09-06T06:13:42.935Z,99.99
2022-09-06T06:14:42.875Z,99.99
2022-09-06T06:15:42.864Z,99.99
2022-09-06T06:16:43.236Z,99.99
2022-09-06T06:17:42.925Z,99.99
2022-09-06T06:18:42.865Z,99.99
2022-09-06T06:19:42.954Z,99.99
2022-09-06T06:20:42.790Z,99.99
2022-09-06T06:21:42.930Z,99.99
2022-09-06T06:22:42.770Z,99.99
2022-09-06T06:23:42.929Z,99.99
2022-09-06T06:24:42.839Z,99.99
2022-09-06T06:25:42.719Z,99.99
2022-09-06T06:26:42.779Z,99.99
2022-09-06T06:27:42.689Z,99.99
2022-09-06T06:28:42.769Z,99.99
2022-09-06T06:29:42.720Z,99.99
2022-09-06T06:30:42.769Z,99.99
2022-09-06T06:31:42.726Z,99.99
2022-09-06T06:32:42.785Z,99.99
2022-09-06T06:33:42.619Z,99.99
2022-09-06T06:34:42.708Z,99.99
2022-09-06T06:35:42.614Z,99.99
2022-09-06T06:36:42.585Z,99.99
2022-09-06T06:37:42.625Z,99.99
2022-09-06T06:38:42.797Z,99.99
2022-09-06T06:39:42.722Z,99.99
2022-09-06T06:40:42.856Z,99.53
2022-09-06T06:41:42.614Z,99.02
2022-09-06T06:42:42.799Z,99.33
2022-09-06T06:43:42.619Z,99.33
2022-09-06T06:44:42.510Z,98.72
2022-09-06T06:45:42.510Z,98.82
2022-09-06T06:46:42.530Z,99.28
2022-09-06T06:47:42.420Z,98.88
2022-09-06T06:48:42.480Z,98.98
2022-09-06T06:49:42.389Z,99.18
2022-09-06T06:50:42.460Z,99.18
2022-09-06T06:51:42.640Z,99.04
2022-09-06T06:52:42.511Z,98.83
2022-09-06T06:53:42.340Z,98.93
2022-09-06T06:54:42.475Z,98.22
2022-09-06T06:55:42.635Z,98.13
2022-09-06T06:56:42.297Z,97.32
2022-09-06T06:57:42.295Z,98.53
2022-09-06T06:58:42.424Z,98.58
2022-09-06T06:59:42.295Z,97.27
2022-09-06T07:00:42.448Z,96.97
2022-09-06T07:01:42.409Z,97.17
2022-09-06T07:02:42.455Z,95.96
2022-09-06T07:03:42.389Z,97.27
2022-09-06T07:04:42.455Z,96.77
2022-09-06T07:07:42.291Z,96.06
2022-09-06T07:08:42.140Z,96.92
2022-09-06T07:10:42.150Z,96.42
2022-09-06T07:11:42.089Z,96.62
2022-09-06T07:12:42.142Z,97.13
2022-09-06T07:13:42.074Z,97.43
2022-09-06T07:14:42.200Z,97.93
2022-09-06T07:15:42.291Z,97.23
2022-09-06T07:16:42.192Z,96.87
2022-09-06T07:17:42.045Z,96.87
2022-09-06T07:18:42.200Z,96.87
2022-09-06T07:21:41.998Z,96.52
2022-09-06T07:22:42.135Z,96.22
2022-09-06T07:24:41.948Z,96.12
2022-09-06T07:25:41.974Z,96.58
2022-09-06T07:26:42.257Z,95.47
2022-09-06T07:27:49.931Z,96.32
2022-09-06T07:28:41.870Z,96.68
2022-09-06T07:29:41.979Z,96.68
2022-09-06T07:30:41.881Z,97.69
2022-09-06T07:32:41.819Z,96.13
2022-09-06T07:33:41.981Z,95.42
2022-09-06T07:34:41.809Z,95.22
2022-09-06T07:35:41.761Z,95.12
2022-09-06T07:36:41.835Z,94.92
2022-09-06T07:37:42.041Z,95.12
2022-09-06T07:38:41.815Z,95.62
2022-09-06T07:39:41.759Z,96.53
2022-09-06T07:40:41.815Z,95.32
2022-09-06T07:41:41.695Z,95.83
2022-09-06T07:42:41.825Z,96.13
2022-09-06T07:43:41.746Z,96.83
2022-09-06T07:44:41.665Z,97.03
2022-09-06T07:45:41.655Z,95.53
2022-09-06T07:46:41.916Z,96.13
2022-09-06T07:47:57.181Z,95.93
2022-09-06T07:48:41.825Z,96.13
2022-09-06T07:50:49.447Z,96.33
2022-09-06T07:51:41.679Z,95.42
2022-09-06T07:53:41.737Z,95.83
2022-09-06T07:54:41.510Z,95.12
2022-09-06T07:55:41.559Z,95.12
2022-09-06T07:56:41.520Z,96.33
2022-09-06T07:57:41.471Z,95.42
2022-09-06T07:58:41.500Z,95.32
2022-09-06T07:59:43.037Z,95.62
2022-09-06T08:00:41.759Z,95.62
2022-09-06T08:01:41.852Z,95.22
2022-09-06T08:02:41.414Z,95.62
2022-09-06T08:03:41.411Z,95.32
2022-09-06T08:04:41.495Z,95.32
2022-09-06T08:07:41.455Z,96.53
2022-09-06T08:09:41.362Z,96.48
2022-09-06T08:10:41.275Z,95.62
2022-09-06T08:11:41.360Z,95.22
2022-09-06T08:12:41.270Z,95.32
2022-09-06T08:13:41.421Z,95.53
2022-09-06T08:14:41.239Z,96.33
2022-09-06T08:15:41.758Z,96.43
2022-09-06T08:16:41.525Z,96.33
2022-09-06T08:17:41.330Z,96.39
2022-09-06T08:18:41.241Z,96.69
2022-09-06T08:19:41.170Z,95.73
2022-09-06T08:20:41.169Z,95.84
2022-09-06T08:21:41.329Z,96.04
2022-09-06T08:22:41.176Z,96.44
2022-09-06T08:23:41.343Z,95.69
2022-09-06T08:24:41.185Z,95.59
2022-09-06T08:25:41.095Z,95.39
2022-09-06T08:26:41.075Z,95.59
2022-09-06T08:27:41.334Z,95.59
2022-09-06T08:28:41.175Z,94.79
2022-09-06T08:29:41.115Z,94.98
2022-09-06T08:30:41.016Z,94.28
2022-09-06T08:31:41.131Z,93.88
2022-09-06T08:32:41.165Z,94.83
2022-09-06T08:33:41.035Z,94.43
2022-09-06T08:34:41.170Z,93.78
2022-09-06T08:35:41.137Z,93.28
2022-09-06T08:36:41.171Z,93.48
2022-09-06T08:37:41.019Z,93.58
2022-09-06T08:38:40.911Z,93.68
2022-09-06T08:39:41.036Z,93.18
2022-09-06T08:40:40.881Z,92.97
2022-09-06T08:41:41.062Z,93.48
2022-09-06T08:42:40.860Z,93.68
2022-09-06T08:43:41.009Z,94.28
2022-09-06T08:44:57.265Z,94.18
2022-09-06T08:45:41.036Z,94.79
2022-09-06T08:46:40.906Z,94.28
2022-09-06T08:47:40.875Z,93.98
2022-09-06T08:48:40.856Z,93.63
2022-09-06T08:49:41.115Z,93.43
2022-09-06T08:50:40.855Z,93.13
2022-09-06T08:51:40.738Z,92.93
2022-09-06T08:52:49.575Z,92.93
2022-09-06T08:53:40.715Z,93.13
2022-09-06T08:54:40.692Z,93.33
2022-09-06T08:55:40.802Z,92.63
2022-09-06T08:56:40.850Z,92.79
2022-09-06T08:57:40.699Z,92.18
2022-09-06T08:58:40.650Z,93.04
2022-09-06T08:59:40.700Z,92.54
2022-09-06T09:00:40.940Z,92.04
2022-09-06T09:01:40.821Z,92.10
2022-09-06T09:02:40.590Z,90.73
2022-09-06T09:03:40.691Z,91.69
2022-09-06T09:04:40.560Z,91.09
2022-09-06T09:05:40.705Z,90.99
2022-09-06T09:06:40.546Z,91.14
2022-09-06T09:07:40.795Z,90.69
2022-09-06T09:08:40.546Z,92.10
2022-09-06T09:09:40.529Z,90.15
2022-09-06T09:10:40.657Z,90.05
2022-09-06T09:11:40.749Z,89.90
2022-09-06T09:12:40.535Z,88.30
2022-09-06T09:13:40.438Z,88.40
2022-09-06T09:14:40.549Z,88.10
2022-09-06T09:15:40.772Z,88.26
2022-09-06T09:16:40.695Z,87.55
2022-09-06T09:17:40.401Z,88.06
2022-09-06T09:18:40.541Z,87.86
2022-09-06T09:19:40.379Z,88.82
2022-09-06T09:20:40.341Z,87.07
2022-09-06T09:21:40.390Z,87.07
2022-09-06T09:22:40.610Z,86.93
2022-09-06T09:23:40.382Z,86.49
2022-09-06T09:24:40.289Z,84.55
2022-09-06T09:25:40.369Z,83.75
2022-09-06T09:26:40.266Z,83.45
2022-09-06T09:27:40.254Z,83.85
2022-09-06T09:28:40.329Z,83.31
2022-09-06T09:29:41.075Z,84.81
2022-09-06T09:30:47.809Z,84.15
2022-09-06T09:31:40.335Z,83.69
2022-09-06T09:32:40.217Z,84.99
2022-09-06T09:33:40.192Z,84.95
2022-09-06T09:34:40.288Z,85.11
2022-09-06T09:35:40.135Z,85.31
2022-09-06T09:36:40.652Z,83.51
2022-09-06T09:37:48.467Z,83.31
2022-09-06T09:38:40.209Z,85.41
2022-09-06T09:39:40.169Z,85.05
2022-09-06T09:40:40.135Z,83.19
2022-09-06T09:41:40.069Z,84.33
2022-09-06T09:42:40.040Z,84.43
2022-09-06T09:43:40.049Z,85.43
2022-09-06T09:44:40.020Z,85.63
2022-09-06T09:45:40.049Z,85.49
2022-09-06T09:46:40.308Z,85.39
2022-09-06T09:47:40.093Z,85.19
2022-09-06T09:48:40.213Z,84.69
2022-09-06T09:49:40.053Z,84.31
2022-09-06T09:50:39.936Z,83.61
2022-09-06T09:51:40.059Z,83.37
2022-09-06T09:52:39.976Z,82.17
2022-09-06T09:53:39.886Z,82.64
2022-09-06T09:54:39.929Z,83.49
2022-09-06T09:55:40.056Z,81.46
2022-09-06T09:56:39.893Z,81.30
2022-09-06T09:57:39.851Z,80.24
2022-09-06T09:58:39.971Z,80.40
2022-09-06T09:59:40.050Z,79.60
2022-09-06T10:00:39.996Z,80.30
2022-09-06T10:01:39.790Z,79.66
2022-09-06T10:02:39.889Z,78.91
2022-09-06T10:05:39.735Z,73.16
2022-09-06T10:07:39.768Z,72.93
2022-09-06T10:08:39.905Z,71.17
2022-09-06T10:09:39.745Z,72.53
2022-09-06T10:10:39.985Z,69.49
2022-09-06T10:11:39.734Z,67.91
2022-09-06T10:12:39.665Z,68.83
2022-09-06T10:13:39.735Z,66.62
2022-09-06T10:14:39.927Z,67.71
2022-09-06T10:15:39.797Z,64.97
2022-09-06T10:16:39.646Z,65.86
2022-09-06T10:17:39.598Z,67.61
2022-09-06T10:18:39.581Z,67.05
2022-09-06T10:19:39.550Z,67.68
2022-09-06T10:20:39.569Z,67.05
2022-09-06T10:21:39.739Z,65.34
2022-09-06T10:22:39.650Z,65.99
2022-09-06T10:24:39.578Z,65.73
2022-09-06T10:25:39.734Z,64.94
2022-09-06T10:26:39.586Z,65.37
2022-09-06T10:27:50.267Z,63.56
2022-09-06T10:28:39.665Z,64.00
2022-09-06T10:29:39.427Z,63.60
2022-09-06T10:30:39.573Z,62.41
2022-09-06T10:31:39.497Z,62.32
2022-09-06T10:32:39.385Z,63.31
2022-09-06T10:33:39.415Z,61.63
2022-09-06T10:34:39.428Z,60.84
2022-09-06T10:35:39.334Z,60.74
2022-09-06T10:36:39.571Z,60.61
2022-09-06T10:37:39.423Z,61.00
2022-09-06T10:38:39.300Z,62.45
2022-09-06T10:39:39.453Z,62.57
2022-09-06T10:40:39.354Z,63.34
2022-09-06T10:41:39.263Z,64.00
2022-09-06T10:42:39.251Z,63.21
2022-09-06T10:43:39.419Z,62.97
2022-09-06T10:44:39.262Z,62.71
2022-09-06T10:45:39.419Z,63.85
2022-09-06T10:46:39.395Z,65.56
2022-09-06T10:47:39.209Z,65.20
2022-09-06T10:48:39.254Z,68.01
2022-09-06T10:49:39.427Z,68.37
2022-09-06T10:50:39.254Z,68.90
2022-09-06T10:51:39.135Z,69.03
2022-09-06T10:52:39.335Z,72.14
2022-09-06T10:53:39.105Z,73.80
2022-09-06T10:54:39.074Z,74.63
2022-09-06T10:55:39.092Z,76.53
2022-09-06T10:56:39.278Z,76.66
2022-09-06T10:59:39.284Z,76.92
2022-09-06T11:00:39.269Z,76.53
2022-09-06T11:01:39.304Z,76.36
2022-09-06T11:02:39.400Z,76.66
2022-09-06T11:03:57.141Z,77.22
2022-09-06T11:05:39.150Z,75.89
2022-09-06T11:06:38.955Z,76.49
2022-09-06T11:07:39.433Z,76.89
2022-09-06T11:08:46.638Z,76.29
2022-09-06T11:09:39.173Z,78.48
2022-09-06T11:10:38.945Z,75.43
2022-09-06T11:11:38.877Z,77.76
2022-09-06T11:12:38.935Z,77.62
2022-09-06T11:13:39.096Z,77.06
2022-09-06T11:14:38.933Z,76.17
2022-09-06T11:15:38.919Z,80.30
2022-09-06T11:16:38.940Z,80.11
2022-09-06T11:17:38.799Z,77.52
2022-09-06T11:18:38.928Z,76.98
2022-09-06T11:19:38.771Z,79.73
2022-09-06T11:20:38.739Z,77.34
2022-09-06T11:21:38.840Z,74.96
2022-09-06T11:22:38.720Z,75.65
2022-09-06T11:23:38.769Z,76.29
2022-09-06T11:24:38.939Z,76.06
2022-09-06T11:25:38.784Z,75.69
2022-09-06T11:26:38.675Z,75.26
2022-09-06T11:27:38.868Z,74.66
2022-09-06T11:28:38.642Z,75.16
2022-09-06T11:29:38.624Z,74.56
2022-09-06T11:30:38.614Z,76.55
2022-09-06T11:32:38.615Z,80.29
2022-09-06T11:33:38.625Z,74.86
2022-09-06T11:34:38.613Z,75.26
2022-09-06T11:35:38.560Z,76.61
2022-09-06T11:36:38.619Z,75.72
2022-09-06T11:37:38.519Z,75.65
2022-09-06T11:38:38.608Z,74.73
2022-09-06T11:40:38.619Z,75.72
2022-09-06T11:41:38.459Z,73.73
2022-09-06T11:42:38.620Z,73.14
2022-09-06T11:43:38.449Z,73.33
2022-09-06T11:44:38.418Z,72.94
2022-09-06T11:45:38.570Z,75.02
2022-09-06T11:46:38.434Z,73.67
2022-09-06T11:47:38.456Z,72.58
2022-09-06T11:48:38.373Z,72.97
2022-09-06T11:49:38.455Z,74.07
2022-09-06T11:50:38.623Z,73.37
2022-09-06T11:51:38.535Z,74.46
2022-09-06T11:52:38.348Z,73.47
2022-09-06T11:53:38.453Z,73.67
2022-09-06T11:54:38.305Z,74.69
2022-09-06T11:55:38.278Z,74.10
2022-09-06T11:56:38.298Z,74.99
2022-09-06T11:57:38.370Z,74.80
2022-09-06T11:58:38.291Z,74.60
2022-09-06T11:59:38.221Z,73.77
2022-09-06T12:00:38.288Z,72.81
2022-09-06T12:01:38.449Z,74.86
2022-09-06T12:02:38.573Z,74.66
2022-09-06T12:04:38.161Z,73.86
2022-09-06T12:05:38.134Z,73.86
2022-09-06T12:06:38.134Z,75.95
2022-09-06T12:07:38.248Z,76.42
2022-09-06T12:08:38.294Z,75.42
2022-09-06T12:09:38.135Z,75.72
2022-09-06T12:10:38.075Z,74.03
2022-09-06T12:11:38.135Z,72.58
2022-09-06T12:12:38.308Z,74.76
2022-09-06T12:13:38.228Z,74.80
2022-09-06T12:14:38.014Z,74.69
2022-09-06T12:15:38.172Z,72.91
2022-09-06T12:16:37.999Z,73.60
2022-09-06T12:17:37.991Z,72.81
2022-09-06T12:18:38.059Z,73.41
2022-09-06T12:19:43.444Z,73.90
2022-09-06T12:20:37.979Z,74.00
2022-09-06T12:21:38.129Z,75.95
2022-09-06T12:22:37.978Z,72.17
2022-09-06T12:23:38.138Z,73.27
2022-09-06T12:24:38.039Z,73.97
2022-09-06T12:25:37.888Z,71.78
2022-09-06T12:26:37.985Z,72.08
2022-09-06T12:27:38.144Z,72.97
2022-09-06T12:28:38.078Z,71.28
2022-09-06T12:29:37.826Z,71.48
2022-09-06T12:30:38.046Z,71.94
2022-09-06T12:31:37.928Z,72.17
2022-09-06T12:32:37.764Z,72.08
2022-09-06T12:33:37.838Z,74.26
2022-09-06T12:34:37.769Z,73.47
2022-09-06T12:36:37.789Z,74.37
2022-09-06T12:37:37.769Z,74.23
2022-09-06T12:38:37.980Z,73.43
2022-09-06T12:39:37.707Z,72.28
2022-09-06T12:40:37.668Z,72.08
2022-09-06T12:41:42.979Z,72.28
2022-09-06T12:42:37.650Z,72.38
2022-09-06T12:43:37.624Z,72.91
2022-09-06T12:44:37.652Z,73.60
2022-09-06T12:45:37.824Z,72.31
2022-09-06T12:46:37.856Z,72.71
2022-09-06T12:47:37.565Z,73.77
2022-09-06T12:48:37.655Z,72.71
2022-09-06T12:49:37.815Z,70.92
2022-09-06T12:50:37.655Z,71.72
2022-09-06T12:51:37.519Z,73.70
2022-09-06T12:52:37.725Z,71.91
2022-09-06T12:53:37.495Z,72.91
2022-09-06T12:54:37.669Z,73.41
2022-09-06T12:55:37.490Z,74.20
2022-09-06T12:56:37.668Z,71.31
2022-09-06T12:57:37.502Z,70.52
2022-09-06T12:58:37.641Z,71.58
2022-09-06T12:59:37.488Z,70.78
2022-09-06T13:00:37.649Z,72.14
2022-09-06T13:01:37.595Z,74.23
2022-09-06T13:02:37.565Z,72.74
2022-09-06T13:03:37.489Z,72.94
2022-09-06T13:04:37.421Z,72.34
2022-09-06T13:05:37.529Z,71.55
2022-09-06T13:06:37.344Z,72.44
2022-09-06T13:07:37.506Z,74.23
2022-09-06T13:08:37.364Z,73.63
2022-09-06T13:09:37.284Z,72.94
2022-09-06T13:10:37.405Z,72.74
2022-09-06T13:11:37.495Z,73.43
2022-09-06T13:12:37.335Z,71.75
2022-09-06T13:13:37.225Z,71.71
2022-09-06T13:14:37.334Z,71.61
2022-09-06T13:15:37.394Z,72.71